Time;durP1;ratioP1;P1;durP2;ratioP2;P2;SDS_P1;SDS_P2;PMS_P1;PMS_P2;Temp;Humidity;BMP_temperature;BMP_pressure;BME280_temperature;BME280_humidity;BME280_pressure;Samples;Min_cycle;Max_cycle;Signal;HPM_P1;HPM_P2
2022/03/03 00:03:37;;;;;;;27.25;14.80;;;;;;;2.39;38.74;100048.03;7704756;32;38816;-72
2022/03/03 00:07:53;;;;;;;35.53;15.60;;;;;;;2.14;39.43;100050.56;7684788;32;37318;-72
2022/03/03 00:12:09;;;;;;;28.30;15.07;;;;;;;2.27;39.14;100047.88;7684790;32;39465;-73
2022/03/03 00:16:26;;;;;;;31.50;15.77;;;;;;;2.14;39.32;100051.44;7708265;32;40409;-72
2022/03/03 00:20:42;;;;;;;30.23;14.77;;;;;;;2.12;39.49;100053.50;7711224;32;38689;-72
2022/03/03 00:24:58;;;;;;;31.75;14.80;;;;;;;1.95;43.44;100063.00;7703582;32;36991;-72
2022/03/03 00:29:15;;;;;;;32.08;15.13;;;;;;;1.75;43.73;100058.50;7711091;32;39332;-73
2022/03/03 00:33:32;;;;;;;29.25;14.63;;;;;;;1.86;43.50;100065.09;7705674;32;40106;-72
2022/03/03 00:37:48;;;;;;;27.73;14.60;;;;;;;1.79;42.54;100059.72;7684294;32;37952;-72
2022/03/03 00:42:04;;;;;;;31.42;14.98;;;;;;;2.14;41.24;100046.03;7684402;32;37499;-73
2022/03/03 00:46:20;;;;;;;31.70;15.88;;;;;;;2.01;41.37;100041.50;7705288;32;40091;-72
2022/03/03 00:50:37;;;;;;;27.27;14.87;;;;;;;2.11;40.48;100038.38;7697167;32;39560;-72
2022/03/03 00:54:53;;;;;;;28.70;15.63;;;;;;;2.10;40.47;100039.41;7699590;32;38616;-73
2022/03/03 00:59:10;;;;;;;28.25;15.57;;;;;;;2.09;40.58;100032.41;7710814;32;37179;-72
2022/03/03 01:03:27;;;;;;;30.98;15.23;;;;;;;1.94;40.65;100021.03;7706460;32;38991;-72
2022/03/03 01:07:44;;;;;;;26.80;15.15;;;;;;;1.90;40.58;100026.03;7683914;32;39978;-72
2022/03/03 01:12:00;;;;;;;29.63;15.63;;;;;;;1.86;40.47;100017.56;7683636;32;37816;-72
2022/03/03 01:16:16;;;;;;;28.77;15.07;;;;;;;1.97;39.96;100023.31;7705045;32;38126;-71
2022/03/03 01:20:32;;;;;;;29.75;15.40;;;;;;;1.94;40.12;100012.97;7710175;32;39374;-72
2022/03/03 01:24:49;;;;;;;30.90;16.23;;;;;;;1.72;40.46;100004.31;7684475;32;40490;-72
2022/03/03 01:29:05;;;;;;;31.02;14.85;;;;;;;1.40;41.40;100007.66;7709925;32;38610;-72
2022/03/03 01:33:21;;;;;;;31.20;15.52;;;;;;;1.30;41.26;100010.72;7706815;32;37293;-72
2022/03/03 01:37:37;;;;;;;29.35;15.75;;;;;;;1.33;41.00;100008.66;7683263;32;39471;-72
2022/03/03 01:41:53;;;;;;;30.12;16.60;;;;;;;1.47;41.22;100015.72;7686870;32;40986;-72
2022/03/03 01:46:09;;;;;;;26.00;15.60;;;;;;;1.52;41.32;100009.69;7688822;32;37963;-72
2022/03/03 01:50:26;;;;;;;29.48;16.37;;;;;;;1.74;40.70;99996.88;7682437;32;37291;-72
2022/03/03 01:54:43;;;;;;;28.83;15.73;;;;;;;1.60;41.07;99985.31;7694722;32;39382;-72
2022/03/03 01:58:59;;;;;;;34.72;16.85;;;;;;;1.25;41.76;99980.16;7685552;32;40781;-72
2022/03/03 02:03:15;;;;;;;28.00;15.68;;;;;;;1.41;41.57;99979.72;7687532;32;37892;-72
2022/03/03 02:07:32;;;;;;;28.27;16.48;;;;;;;1.48;41.02;99983.25;7712814;32;37423;-72
2022/03/03 02:11:48;;;;;;;31.08;15.95;;;;;;;1.35;46.11;99983.25;7712644;32;39052;-71
2022/03/03 02:16:06;;;;;;;24.35;15.30;;;;;;;1.34;45.22;99978.09;7711422;32;40848;-72
2022/03/03 02:20:25;;;;;;;30.83;17.08;;;;;;;1.37;44.33;99981.19;7699117;32;37776;-72
2022/03/03 02:24:43;;;;;;;37.17;17.80;;;;;;;1.49;42.12;99982.22;7698665;32;36343;-72
2022/03/03 02:28:59;;;;;;;32.13;17.80;;;;;;;1.12;42.60;99967.53;7672369;32;38205;-71
2022/03/03 02:33:15;;;;;;;34.55;17.62;;;;;;;1.36;42.04;99971.47;7689923;32;39877;-71
2022/03/03 02:37:52;;;;;;;31.87;17.30;;;;;;;1.22;42.37;99957.19;7712330;32;38645;-72
2022/03/03 02:42:09;;;;;;;31.25;16.10;;;;;;;1.16;42.42;99951.84;7712305;32;37910;-72
2022/03/03 02:46:25;;;;;;;28.92;14.82;;;;;;;1.18;42.34;99939.03;7704728;32;39451;-72
2022/03/03 02:50:41;;;;;;;34.13;16.02;;;;;;;1.35;41.92;99947.53;7712238;32;40967;-72
2022/03/03 02:54:57;;;;;;;30.98;15.63;;;;;;;1.35;41.75;99948.34;7697005;32;37995;-72
2022/03/03 02:59:14;;;;;;;34.65;15.57;;;;;;;1.35;41.65;99939.47;7711249;32;36703;-72
2022/03/03 03:03:30;;;;;;;34.25;16.83;;;;;;;1.41;41.59;99933.25;7706559;32;39271;-71
2022/03/03 03:07:46;;;;;;;34.72;16.50;;;;;;;1.30;41.87;99942.75;7684543;32;40836;-71
2022/03/03 03:12:03;;;;;;;32.45;16.65;;;;;;;1.18;42.25;99947.09;7685239;32;37622;-72
2022/03/03 03:16:19;;;;;;;29.63;16.55;;;;;;;1.07;42.69;99943.16;7707828;32;38033;-72
2022/03/03 03:20:36;;;;;;;30.92;15.82;;;;;;;1.17;42.35;99948.13;7711932;32;40139;-71
2022/03/03 03:24:52;;;;;;;32.67;17.27;;;;;;;0.90;43.01;99948.94;7697776;32;40067;-72
2022/03/03 03:29:08;;;;;;;31.77;16.73;;;;;;;1.20;42.10;99953.91;7684962;32;38020;-72
2022/03/03 03:33:24;;;;;;;35.72;17.12;;;;;;;0.79;43.41;99935.28;7689023;32;37589;-73
2022/03/03 03:37:40;;;;;;;30.00;16.58;;;;;;;0.97;42.88;99935.53;7711904;32;39391;-72
2022/03/03 03:41:57;;;;;;;33.67;17.55;;;;;;;1.05;42.71;99940.69;7711735;32;39691;-72
2022/03/03 03:46:13;;;;;;;27.23;15.50;;;;;;;0.92;42.83;99935.31;7689774;32;37538;-72
2022/03/03 03:50:29;;;;;;;31.23;16.15;;;;;;;0.88;42.91;99932.22;7685085;32;38031;-73
2022/03/03 03:54:45;;;;;;;32.70;17.70;;;;;;;1.09;42.34;99931.19;7697897;32;39597;-73
2022/03/03 03:59:02;;;;;;;31.83;17.20;;;;;;;0.82;43.20;99943.75;7685019;32;39936;-73
2022/03/03 04:03:18;;;;;;;31.95;17.50;;;;;;;0.63;43.95;99948.06;7676537;32;39119;-73
2022/03/03 04:07:35;;;;;;;33.45;17.62;;;;;;;0.69;44.00;99946.41;7711748;32;36946;-73
2022/03/03 04:11:51;;;;;;;35.22;18.02;;;;;;;0.90;43.34;99932.81;7711319;32;39954;-73
2022/03/03 04:16:07;;;;;;;38.17;19.55;;;;;;;0.79;43.56;99946.03;7687814;32;40885;-73
2022/03/03 04:20:24;;;;;;;38.10;18.27;;;;;;;0.54;44.95;99943.91;7684400;32;38150;-73
2022/03/03 04:24:40;;;;;;;37.17;16.45;;;;;;;0.51;45.77;99944.31;7695366;32;37756;-72
2022/03/03 04:28:57;;;;;;;31.67;17.80;;;;;;;0.67;45.75;99943.09;7684559;32;38978;-73
2022/03/03 04:33:14;;;;;;;35.67;18.02;;;;;;;0.57;45.68;99948.88;7675029;32;40716;-72
2022/03/03 04:37:36;;;;;;;33.25;17.40;;;;;;;0.40;46.32;99952.94;7710941;32;38465;-72
2022/03/03 04:41:52;;;;;;;36.60;19.15;;;;;;;0.64;44.75;99952.41;7710600;32;37272;-73
2022/03/03 04:46:08;;;;;;;32.72;18.60;;;;;;;0.74;44.05;99934.06;7687935;32;39404;-73
2022/03/03 04:50:25;;;;;;;34.65;17.85;;;;;;;0.61;44.39;99941.25;7684097;32;40670;-72
2022/03/03 04:54:42;;;;;;;32.88;18.23;;;;;;;0.46;44.82;99930.69;7697037;32;37999;-72
2022/03/03 04:58:58;;;;;;;31.60;17.58;;;;;;;0.62;44.42;99943.72;7711061;32;38247;-72
2022/03/03 05:03:14;;;;;;;34.80;18.12;;;;;;;0.64;44.72;99938.97;7703515;32;39487;-74
2022/03/03 05:07:31;;;;;;;35.40;18.45;;;;;;;0.50;44.87;99934.59;7701324;32;40816;-72
2022/03/03 05:11:47;;;;;;;33.97;17.62;;;;;;;0.21;45.58;99935.75;7710057;32;38666;-73
2022/03/03 05:16:04;;;;;;;36.50;19.40;;;;;;;0.27;46.45;99940.31;7710291;32;37223;-72
2022/03/03 05:20:21;;;;;;;32.22;17.87;;;;;;;0.26;47.73;99942.19;7683708;32;40536;-72
2022/03/03 05:24:38;;;;;;;35.63;18.48;;;;;;;0.15;48.34;99945.41;7683498;32;40860;-74
2022/03/03 05:28:54;;;;;;;32.95;17.87;;;;;;;0.11;49.17;99941.50;7700946;32;37950;-73
2022/03/03 05:33:10;;;;;;;35.05;17.05;;;;;;;-0.06;49.33;99933.78;7711940;32;37088;-73
2022/03/03 05:37:27;;;;;;;36.80;17.87;;;;;;;0.24;47.90;99925.44;7704536;32;39534;-72
2022/03/03 05:41:43;;;;;;;33.95;17.50;;;;;;;0.27;47.78;99937.63;7686346;32;39899;-73
2022/03/03 05:45:59;;;;;;;34.70;18.65;;;;;;;0.24;47.25;99933.47;7686216;32;38744;-72
2022/03/03 05:50:15;;;;;;;36.92;19.20;;;;;;;0.39;46.23;99935.19;7712065;32;37942;-72
2022/03/03 05:54:31;;;;;;;36.10;20.55;;;;;;;0.24;46.41;99929.97;7710636;32;39933;-72
2022/03/03 05:58:50;;;;;;;37.78;18.75;;;;;;;0.12;46.39;99929.72;7695992;32;39859;-73
2022/03/03 06:03:07;;;;;;;47.88;19.08;;;;;;;0.18;46.49;99934.28;7672805;32;37797;-73
2022/03/03 06:07:28;;;;;;;40.38;19.27;;;;;;;0.21;46.31;99939.28;7679844;32;37909;-72
2022/03/03 06:11:57;;;;;;;33.88;18.55;;;;;;;0.26;46.32;99938.66;7712574;32;39475;-73
2022/03/03 06:16:18;;;;;;;34.13;18.45;;;;;;;0.27;46.62;99937.63;7699598;32;40533;-72
2022/03/03 06:20:36;;;;;;;38.60;19.98;;;;;;;0.41;46.33;99939.31;7686869;32;38116;-75
2022/03/03 06:24:52;;;;;;;35.33;19.90;;;;;;;0.51;46.25;99938.94;7712848;32;38642;-73
2022/03/03 06:29:14;;;;;;;39.15;18.92;;;;;;;0.46;46.45;99933.34;7693870;32;39397;-72
2022/03/03 06:33:30;;;;;;;31.77;18.37;;;;;;;0.28;47.31;99950.03;7685856;32;40828;-72
2022/03/03 06:37:46;;;;;;;37.42;18.77;;;;;;;0.44;47.21;99954.19;7694813;32;38778;-72
2022/03/03 06:42:02;;;;;;;32.92;17.83;;;;;;;0.78;47.60;99965.81;7698780;32;37316;-72
2022/03/03 06:46:19;;;;;;;33.95;18.62;;;;;;;0.78;49.37;99963.16;7711702;32;39810;-71
2022/03/03 06:50:37;;;;;;;46.85;20.30;;;;;;;0.82;49.17;99957.16;7685702;32;40072;-71
2022/03/03 06:54:54;;;;;;;42.47;19.85;;;;;;;0.73;49.53;99964.59;7685466;32;38449;-71
2022/03/03 06:59:10;;;;;;;35.17;18.60;;;;;;;0.83;49.58;99958.84;7703039;32;37984;-74
2022/03/03 07:03:28;;;;;;;38.17;18.77;;;;;;;0.03;53.52;99971.13;7712204;32;39022;-71
2022/03/03 07:07:45;;;;;;;35.58;19.50;;;;;;;0.52;52.84;99954.03;7710402;32;40038;-72
2022/03/03 07:12:02;;;;;;;40.60;19.87;;;;;;;0.75;52.13;99946.41;7711913;32;38033;-72
2022/03/03 07:16:44;;;;;;;36.03;18.65;;;;;;;0.96;52.06;99952.66;7709258;32;37277;-70
2022/03/03 07:21:16;;;;;;;39.63;20.47;;;;;;;0.66;53.82;99953.03;7677284;32;39861;-71
2022/03/03 07:25:43;;;;;;;30.83;18.83;;;;;;;1.19;51.94;99946.06;7698728;32;39601;-70
2022/03/03 07:30:05;;;;;;;41.65;19.77;;;;;;;1.46;51.10;99945.00;7685072;32;38538;-71
2022/03/03 07:34:29;;;;;;;39.85;20.55;;;;;;;1.83;49.38;99948.06;7685027;32;37258;-71
2022/03/03 07:38:55;;;;;;;39.10;20.02;;;;;;;1.78;47.50;99939.81;7689356;32;40088;-73
2022/03/03 07:43:13;;;;;;;37.80;18.85;;;;;;;2.20;46.27;99942.97;7698105;32;39957;-71
2022/03/03 07:47:30;;;;;;;32.78;19.77;;;;;;;2.59;49.34;99941.13;7701764;32;38743;-72
2022/03/03 07:51:47;;;;;;;35.75;19.58;;;;;;;3.18;45.08;99943.66;7693773;32;37153;-72
2022/03/03 07:56:05;;;;;;;38.33;20.10;;;;;;;2.97;44.77;99934.88;7710474;32;40059;-71
2022/03/03 08:00:21;;;;;;;38.30;19.98;;;;;;;3.59;41.98;99928.78;7684980;32;38996;-72
2022/03/03 08:04:38;;;;;;;40.85;20.77;;;;;;;3.53;41.53;99918.88;7671569;32;35735;-72
2022/03/03 08:08:57;;;;;;;42.45;20.73;;;;;;;3.72;43.70;99925.09;7671498;32;37837;-73
2022/03/03 08:13:15;;;;;;;36.78;19.83;;;;;;;4.01;43.08;99920.03;7684854;32;39129;-72
2022/03/03 08:17:34;;;;;;;37.40;21.33;;;;;;;4.26;43.20;99911.81;7693440;32;38926;-72
2022/03/03 08:21:50;;;;;;;43.22;22.65;;;;;;;3.33;44.38;99914.50;7710991;32;37924;-72
2022/03/03 08:26:12;;;;;;;54.72;23.42;;;;;;;3.83;43.30;99918.16;7710783;32;36602;-73
2022/03/03 08:30:29;;;;;;;47.00;24.35;;;;;;;3.80;43.33;99913.22;7670956;32;38998;-72
2022/03/03 08:35:08;;;;;;;41.47;23.27;;;;;;;3.88;43.01;99904.81;7684476;32;40044;-73
2022/03/03 08:39:28;;;;;;;43.55;23.50;;;;;;;3.75;43.50;99898.50;7698857;32;37910;-72
2022/03/03 08:43:46;;;;;;;46.28;23.40;;;;;;;4.03;43.67;99896.34;7710976;32;36955;-72
2022/03/03 08:48:08;;;;;;;42.35;23.08;;;;;;;4.47;42.48;99891.63;7684938;32;39171;-72
2022/03/03 08:52:25;;;;;;;43.20;21.80;;;;;;;4.47;41.66;99895.16;7684050;32;39715;-72
2022/03/03 08:56:41;;;;;;;39.83;21.12;;;;;;;4.49;41.94;99889.53;7686812;32;38605;-73
2022/03/03 09:00:58;;;;;;;34.75;20.12;;;;;;;4.54;40.99;99891.53;7710679;32;37189;-72
2022/03/03 09:05:14;;;;;;;39.30;21.30;;;;;;;4.37;40.78;99891.34;7708487;32;40096;-72
2022/03/03 09:09:30;;;;;;;40.83;22.27;;;;;;;4.91;44.03;99881.41;7688265;32;40531;-72
2022/03/03 09:13:51;;;;;;;43.78;20.50;;;;;;;5.17;39.43;99882.84;7683735;32;38012;-73
2022/03/03 09:18:07;;;;;;;49.25;21.02;;;;;;;5.88;38.44;99874.72;7694718;32;37422;-73
2022/03/03 09:22:24;;;;;;;44.22;20.52;;;;;;;5.82;40.78;99870.25;7710030;32;39315;-72
2022/03/03 09:26:40;;;;;;;42.97;20.67;;;;;;;6.24;36.86;99851.06;7708682;32;40025;-73
2022/03/03 09:30:57;;;;;;;37.13;20.62;;;;;;;6.30;36.59;99863.66;7709646;32;38449;-73
2022/03/03 09:35:13;;;;;;;38.50;20.60;;;;;;;6.62;36.95;99852.31;7709815;32;37618;-73
2022/03/03 09:39:29;;;;;;;37.85;20.20;;;;;;;6.96;36.91;99857.75;7689553;32;39959;-73
2022/03/03 09:43:46;;;;;;;36.65;19.05;;;;;;;6.94;36.60;99860.72;7682970;32;40736;-74
2022/03/03 09:48:05;;;;;;;40.47;18.92;;;;;;;7.09;36.71;99860.16;7692973;32;37966;-74
2022/03/03 09:52:22;;;;;;;36.80;18.08;;;;;;;7.18;36.27;99855.13;7707872;32;38090;-73
2022/03/03 09:56:38;;;;;;;31.75;17.25;;;;;;;7.60;35.11;99848.41;7707520;32;40093;-74
2022/03/03 10:00:56;;;;;;;31.40;17.90;;;;;;;8.10;33.98;99844.69;7682750;32;40067;-75
2022/03/03 10:05:13;;;;;;;30.80;16.50;;;;;;;7.89;34.43;99839.00;7669207;32;37002;-74
2022/03/03 10:09:29;;;;;;;31.45;15.82;;;;;;;8.08;33.69;99842.22;7701617;32;37397;-72
2022/03/03 10:13:51;;;;;;;31.17;16.48;;;;;;;7.44;34.35;99842.75;7695178;32;40043;-72
2022/03/03 10:18:12;;;;;;;36.25;16.37;;;;;;;7.89;33.50;99830.84;7699426;32;40340;-72
2022/03/03 10:22:42;;;;;;;31.58;15.95;;;;;;;8.15;33.62;99833.87;7700701;32;38108;-72
2022/03/03 10:27:00;;;;;;;31.35;16.62;;;;;;;7.92;33.41;99821.41;7709520;32;38037;-73
2022/03/03 10:31:20;;;;;;;35.63;17.52;;;;;;;6.96;34.05;99836.06;7685995;32;38262;-73
2022/03/03 10:35:36;;;;;;;31.60;17.30;;;;;;;8.28;32.73;99811.75;7693146;32;40050;-72
2022/03/03 10:40:00;;;;;;;30.92;17.73;;;;;;;8.72;31.99;99804.56;7702886;32;38900;-72
2022/03/03 10:44:32;;;;;;;32.08;18.40;;;;;;;8.39;31.43;99817.28;7712310;32;37477;-72
2022/03/03 10:48:49;;;;;;;36.80;17.87;;;;;;;9.24;31.11;99794.87;7708761;32;39089;-72
2022/03/03 10:53:11;;;;;;;38.47;16.37;;;;;;;9.85;29.44;99788.91;7711865;32;40186;-73
2022/03/03 10:57:34;;;;;;;32.42;18.02;;;;;;;9.73;29.43;99784.53;7693545;32;37640;-73
2022/03/03 11:01:52;;;;;;;30.17;17.10;;;;;;;10.14;28.44;99779.22;7685588;32;37325;-73
2022/03/03 11:06:11;;;;;;;37.83;18.83;;;;;;;11.34;27.72;99773.47;7685678;32;38373;-75
2022/03/03 11:10:30;;;;;;;32.72;17.58;;;;;;;12.04;26.18;99759.00;7671904;32;39714;-73
2022/03/03 11:14:47;;;;;;;31.08;17.10;;;;;;;10.92;27.15;99776.53;7684938;32;36971;-73
2022/03/03 11:19:11;;;;;;;34.03;17.77;;;;;;;10.58;28.14;99771.66;7685331;32;37271;-73
2022/03/03 11:23:47;;;;;;;30.60;16.50;;;;;;;10.85;27.99;99761.28;7706947;32;39446;-75
2022/03/03 11:28:08;;;;;;;32.30;16.90;;;;;;;10.62;27.66;99761.84;7699120;32;40305;-73
2022/03/03 11:32:24;;;;;;;34.97;17.90;;;;;;;11.08;27.58;99759.88;7711127;32;37647;-73
2022/03/03 11:36:47;;;;;;;30.55;17.20;;;;;;;10.68;27.58;99753.38;7711706;32;37699;-73
2022/03/03 11:41:04;;;;;;;35.72;18.10;;;;;;;9.98;28.02;99754.91;7697418;32;39454;-73
2022/03/03 11:45:34;;;;;;;28.30;16.05;;;;;;;9.81;28.48;99746.97;7711219;32;40053;-74
2022/03/03 11:50:06;;;;;;;33.88;17.40;;;;;;;10.62;27.95;99740.03;7709950;32;38741;-74
2022/03/03 11:54:42;;;;;;;33.80;17.12;;;;;;;10.10;29.01;99729.06;7711452;32;37793;-73
2022/03/03 11:59:12;;;;;;;27.98;16.50;;;;;;;9.44;28.82;99734.31;7711498;32;39736;-72
2022/03/03 12:03:29;;;;;;;39.20;17.65;;;;;;;9.31;29.78;99739.19;7711522;32;40719;-74
2022/03/03 12:07:47;;;;;;;33.90;16.98;;;;;;;9.78;28.91;99734.72;7711323;32;37956;-74
2022/03/03 12:12:19;;;;;;;30.70;16.33;;;;;;;9.82;29.05;99726.84;7697555;32;37094;-73
2022/03/03 12:16:35;;;;;;;29.37;16.10;;;;;;;10.13;28.79;99722.25;7711457;32;39421;-74
2022/03/03 12:20:52;;;;;;;27.98;15.35;;;;;;;11.11;27.82;99714.88;7710518;32;39883;-73
2022/03/03 12:25:50;;;;;;;27.15;16.05;;;;;;;11.15;26.52;99710.47;7711182;32;37526;-73
2022/03/03 12:30:08;;;;;;;27.17;15.55;;;;;;;12.00;25.39;99698.66;7699673;32;37987;-74
2022/03/03 12:34:31;;;;;;;28.40;16.35;;;;;;;11.60;25.48;99695.00;7698043;32;39023;-75
2022/03/03 12:38:48;;;;;;;25.77;15.13;;;;;;;11.36;25.83;99688.59;7710780;32;40737;-73
2022/03/03 12:43:11;;;;;;;28.17;15.73;;;;;;;10.96;26.38;99691.16;7710463;32;39098;-74
2022/03/03 12:47:40;;;;;;;28.90;16.23;;;;;;;10.98;26.42;99682.72;7697704;32;37882;-74
2022/03/03 12:51:57;;;;;;;28.00;15.18;;;;;;;11.54;25.56;99676.19;7695314;32;39057;-74
2022/03/03 12:56:26;;;;;;;27.05;14.55;;;;;;;11.63;25.65;99680.81;7683734;32;40971;-75
2022/03/03 13:00:46;;;;;;;24.65;14.55;;;;;;;11.94;24.81;99675.19;7683906;32;37935;-74
2022/03/03 13:05:03;;;;;;;27.70;14.82;;;;;;;11.53;25.51;99672.66;7670904;32;35514;-74
2022/03/03 13:09:19;;;;;;;27.70;15.43;;;;;;;11.28;25.74;99665.44;7670270;32;39217;-74
2022/03/03 13:13:46;;;;;;;28.27;14.43;;;;;;;11.09;25.94;99663.31;7681785;32;39927;-73
2022/03/03 13:18:08;;;;;;;30.48;14.68;;;;;;;12.20;25.04;99644.94;7682211;32;38893;-72
2022/03/03 13:22:24;;;;;;;26.60;13.75;;;;;;;11.75;24.70;99646.88;7700288;32;37492;-73
2022/03/03 13:26:49;;;;;;;27.67;14.77;;;;;;;12.10;25.55;99637.63;7689113;32;39016;-72
2022/03/03 13:31:05;;;;;;;26.02;14.43;;;;;;;12.45;24.69;99637.59;7683179;32;38989;-74
2022/03/03 13:35:23;;;;;;;24.65;14.70;;;;;;;12.35;24.26;99633.06;7669201;32;38098;-72
2022/03/03 13:39:39;;;;;;;23.27;13.07;;;;;;;12.07;24.18;99631.94;7682764;32;38219;-73
2022/03/03 13:44:10;;;;;;;25.17;13.60;;;;;;;11.03;25.14;99637.13;7682656;32;39534;-74
2022/03/03 13:48:33;;;;;;;26.60;14.40;;;;;;;12.03;23.95;99621.56;7687465;32;39148;-75
2022/03/03 13:52:49;;;;;;;24.73;13.80;;;;;;;11.18;25.24;99633.53;7676039;32;38468;-75
2022/03/03 13:57:05;;;;;;;28.48;14.52;;;;;;;11.52;24.94;99615.59;7685885;32;37274;-74
2022/03/03 14:01:27;;;;;;;30.00;14.52;;;;;;;11.04;25.20;99616.94;7685821;32;39233;-74
2022/03/03 14:05:53;;;;;;;22.15;13.48;;;;;;;10.53;25.68;99623.34;7685496;32;40108;-76
2022/03/03 14:10:09;;;;;;;24.48;13.15;;;;;;;10.42;25.79;99620.94;7686122;32;38738;-74
2022/03/03 14:14:28;;;;;;;21.17;12.75;;;;;;;10.64;25.47;99612.44;7686201;32;37197;-75
2022/03/03 14:18:45;;;;;;;23.65;13.23;;;;;;;11.25;24.78;99612.22;7686113;32;39432;-74
2022/03/03 14:23:01;;;;;;;22.15;13.07;;;;;;;11.59;24.45;99606.03;7694803;32;40706;-75
2022/03/03 14:27:18;;;;;;;24.37;13.45;;;;;;;12.03;24.31;99599.69;7712608;32;37969;-75
2022/03/03 14:31:37;;;;;;;27.17;14.73;;;;;;;12.32;23.66;99595.38;7712571;32;38050;-75
2022/03/03 14:35:56;;;;;;;23.02;13.60;;;;;;;11.78;24.33;99597.13;7712569;32;40104;-74
2022/03/03 14:40:13;;;;;;;25.83;13.07;;;;;;;11.43;24.89;99597.13;7712432;32;39958;-75
2022/03/03 14:44:29;;;;;;;26.25;14.07;;;;;;;10.38;25.74;99607.03;7712171;32;38038;-75
2022/03/03 14:48:45;;;;;;;26.40;13.25;;;;;;;10.69;25.05;99602.34;7703742;32;38042;-75
2022/03/03 14:53:03;;;;;;;23.30;12.57;;;;;;;11.15;24.77;99601.34;7685547;32;40085;-74
2022/03/03 14:57:25;;;;;;;;;;;;;;;11.03;24.96;99592.69;7685968;32;40000;-75
2022/03/03 15:01:41;;;;;;;26.17;12.30;;;;;;;11.22;24.48;99590.13;7685686;32;38080;-74
2022/03/03 15:05:57;;;;;;;28.40;12.45;;;;;;;10.91;24.62;99593.00;7684504;32;38185;-74
2022/03/03 15:10:16;;;;;;;23.05;12.52;;;;;;;10.10;26.07;99602.94;7685588;32;39844;-74
2022/03/03 15:14:32;;;;;;;25.67;12.82;;;;;;;10.72;25.35;99590.06;7685497;32;39954;-74
2022/03/03 15:18:48;;;;;;;25.08;12.68;;;;;;;10.72;25.71;99584.59;7685225;32;38089;-74
2022/03/03 15:23:04;;;;;;;24.98;13.30;;;;;;;10.50;25.46;99593.94;7708633;32;37361;-74
2022/03/03 15:27:20;;;;;;;22.98;12.18;;;;;;;10.60;25.18;99581.37;7697931;32;40050;-74
2022/03/03 15:31:37;;;;;;;23.00;12.23;;;;;;;10.54;26.23;99586.03;7711823;32;40061;-74
2022/03/03 15:40:28;;;;;;;28.75;12.13;;;;;;;10.32;25.23;99576.25;7711751;32;37304;-74
2022/03/03 15:44:45;;;;;;;27.80;12.45;;;;;;;10.15;25.75;99581.16;7711549;32;40382;-74
2022/03/03 15:49:02;;;;;;;41.53;15.35;;;;;;;10.09;25.92;99580.34;7700846;32;40348;-74
2022/03/03 15:53:18;;;;;;;24.90;13.00;;;;;;;9.87;26.53;99582.53;7684709;32;38653;-74
2022/03/03 15:57:34;;;;;;;25.55;12.95;;;;;;;10.17;26.22;99586.34;7684949;32;37991;-73
2022/03/03 16:01:51;;;;;;;23.87;12.65;;;;;;;9.59;27.34;99584.69;7684762;32;40220;-75
2022/03/03 16:06:08;;;;;;;35.60;17.02;;;;;;;9.62;27.58;99586.03;7684465;32;40003;-74
2022/03/03 16:10:24;;;;;;;40.95;19.23;;;;;;;9.69;27.77;99592.88;7684520;32;38801;-73
2022/03/03 16:14:41;;;;;;;36.42;16.90;;;;;;;9.66;28.17;99593.41;7683806;32;38045;-74
2022/03/03 16:19:18;;;;;;;35.05;17.85;;;;;;;9.84;28.06;99588.53;7683951;32;39345;-73
2022/03/03 16:23:34;;;;;;;32.20;14.30;;;;;;;10.03;27.97;99592.31;7710884;32;40002;-74
2022/03/03 16:28:10;;;;;;;24.95;12.70;;;;;;;9.64;28.35;99595.59;7710051;32;38304;-74
2022/03/03 16:32:26;;;;;;;31.52;14.52;;;;;;;9.74;28.22;99598.31;7710910;32;37103;-73
2022/03/03 16:36:43;;;;;;;25.77;13.40;;;;;;;9.81;28.29;99589.06;7696593;32;38976;-74
2022/03/03 16:40:59;;;;;;;29.17;14.18;;;;;;;9.73;28.67;99595.88;7709748;32;39982;-73
2022/03/03 16:45:16;;;;;;;22.02;12.18;;;;;;;9.84;28.90;99583.06;7696240;32;38576;-74
2022/03/03 16:49:36;;;;;;;24.27;11.85;;;;;;;9.44;29.78;99598.28;7691338;32;157926;-74
2022/03/03 16:53:53;;;;;;;24.08;13.00;;;;;;;9.42;29.83;99592.25;7696012;32;39230;-74
2022/03/03 16:58:09;;;;;;;114.03;45.78;;;;;;;9.31;29.62;99586.81;7709831;32;40829;-74
2022/03/03 17:02:26;;;;;;;129.12;52.80;;;;;;;9.48;28.53;99594.72;7709971;32;37690;-74
2022/03/03 17:06:42;;;;;;;271.80;110.40;;;;;;;9.35;28.83;99601.50;7710170;32;38020;-74
2022/03/03 17:11:04;;;;;;;119.20;54.15;;;;;;;9.19;29.36;99597.94;7710164;32;39499;-73
2022/03/03 17:15:24;;;;;;;71.22;35.05;;;;;;;9.25;29.06;99593.31;7709989;32;38222;-74
2022/03/03 17:19:40;;;;;;;119.75;55.08;;;;;;;9.10;28.97;99596.00;7709381;32;38596;-73
2022/03/03 17:23:58;;;;;;;144.60;65.03;;;;;;;8.99;29.29;99595.16;7709232;32;37086;-73
2022/03/03 17:28:14;;;;;;;131.25;58.55;;;;;;;9.16;29.04;99587.59;7708526;32;39375;-73
2022/03/03 17:32:30;;;;;;;313.98;128.18;;;;;;;9.15;28.81;99596.00;7709556;32;40748;-73
2022/03/03 17:36:51;;;;;;;75.57;38.05;;;;;;;8.98;29.32;99594.31;7709300;32;37696;-73
2022/03/03 17:41:07;;;;;;;219.68;91.85;;;;;;;8.83;29.52;99591.56;7709655;32;37327;-73
2022/03/03 17:45:24;;;;;;;241.85;103.80;;;;;;;8.77;30.01;99592.59;7709250;32;39351;-73
2022/03/03 17:49:40;;;;;;;100.93;44.15;;;;;;;8.84;30.00;99593.16;7708444;32;40818;-73
2022/03/03 17:53:57;;;;;;;132.75;60.92;;;;;;;8.80;29.78;99590.16;7708821;32;37819;-73
2022/03/03 17:58:13;;;;;;;138.10;61.72;;;;;;;8.62;30.13;99590.59;7695984;32;37485;-73
2022/03/03 18:02:29;;;;;;;76.55;36.15;;;;;;;8.68;29.95;99584.13;7709230;32;39312;-73
2022/03/03 18:06:46;;;;;;;42.13;22.27;;;;;;;8.72;30.06;99585.22;7708655;32;40118;-74
2022/03/03 18:11:03;;;;;;;44.65;22.35;;;;;;;8.74;29.99;99588.50;7708945;32;37863;-74
2022/03/03 18:15:19;;;;;;;34.83;19.05;;;;;;;8.71;29.91;99588.22;7696869;32;38010;-73
2022/03/03 18:19:37;;;;;;;44.00;20.02;;;;;;;8.28;30.77;99605.31;7682033;32;39297;-73
2022/03/03 18:23:53;;;;;;;78.00;37.08;;;;;;;8.45;30.60;99598.94;7682114;32;40620;-74
2022/03/03 18:28:10;;;;;;;83.93;37.40;;;;;;;8.32;31.09;99608.34;7681524;32;37921;-73
2022/03/03 18:32:26;;;;;;;100.10;45.97;;;;;;;8.33;31.73;99607.28;7681869;32;37342;-73
2022/03/03 18:36:42;;;;;;;76.75;36.67;;;;;;;8.23;32.25;99607.19;7692766;32;39481;-73
2022/03/03 18:41:00;;;;;;;157.75;69.82;;;;;;;8.33;32.01;99603.72;7697769;32;39832;-72
2022/03/03 18:45:16;;;;;;;87.50;42.62;;;;;;;8.08;32.46;99603.28;7697945;32;37979;-72
2022/03/03 18:49:32;;;;;;;45.55;23.98;;;;;;;8.29;31.81;99606.13;7685082;32;37354;-72
2022/03/03 18:53:48;;;;;;;40.25;22.20;;;;;;;7.98;31.95;99618.66;7684605;32;39369;-73
2022/03/03 18:58:04;;;;;;;37.30;19.35;;;;;;;7.70;32.55;99615.16;7685489;32;41192;-72
2022/03/03 19:02:20;;;;;;;48.13;23.87;;;;;;;7.94;31.59;99620.28;7685542;32;37601;-72
2022/03/03 19:06:37;;;;;;;42.38;20.58;;;;;;;7.64;32.61;99614.31;7685513;32;37949;-73
2022/03/03 19:10:53;;;;;;;41.00;21.10;;;;;;;7.78;32.30;99614.72;7685343;32;40076;-72
2022/03/03 19:15:11;;;;;;;42.88;21.05;;;;;;;7.79;32.50;99610.91;7696532;32;39942;-72
2022/03/03 19:19:29;;;;;;;41.60;21.52;;;;;;;7.65;32.79;99612.41;7711286;32;37845;-71
2022/03/03 19:23:45;;;;;;;45.38;20.35;;;;;;;7.78;32.69;99614.72;7711704;32;38012;-73
2022/03/03 19:28:01;;;;;;;36.50;20.10;;;;;;;7.63;33.20;99625.41;7697878;32;39326;-72
2022/03/03 19:36:56;;;;;;;91.30;40.42;;;;;;;7.46;34.22;99618.19;7680558;32;38564;-73
2022/03/03 19:41:12;;;;;;;72.30;35.55;;;;;;;7.36;33.42;99617.25;7711932;32;37296;-72
2022/03/03 19:45:29;;;;;;;51.50;25.48;;;;;;;7.40;32.72;99611.09;7711228;32;39100;-71
2022/03/03 19:49:45;;;;;;;37.78;20.20;;;;;;;7.24;32.20;99626.34;7707363;32;40555;-71
2022/03/03 19:54:03;;;;;;;39.58;19.23;;;;;;;6.55;32.58;99629.53;7709924;32;38032;-71
2022/03/03 19:58:19;;;;;;;39.65;17.90;;;;;;;6.50;32.30;99638.44;7710835;32;37896;-70
2022/03/03 20:02:35;;;;;;;34.95;17.48;;;;;;;6.41;31.45;99641.78;7711407;32;40166;-70
2022/03/03 20:06:52;;;;;;;31.77;17.02;;;;;;;6.18;31.47;99635.50;7697776;32;40361;-70